sensor_id;sensor_type;location;lat;lon;timestamp;noise_LAeq;noise_LA_min;noise_LA_max;noise_LA01;noise_LA95
72626;Laerm;60449;52.016;5.414;2023-08-12T00:00:00;42.23;28.28;54.65;;
72626;Laerm;60449;52.016;5.414;2023-08-12T00:00:59;49.45;28.55;63.72;;
72626;Laerm;60449;52.016;5.414;2023-08-12T00:01:49;46.18;35.26;57.17;;
72626;Laerm;60449;52.016;5.414;2023-08-12T00:02:42;49.15;31.19;58.98;;
72626;Laerm;60449;52.016;5.414;2023-08-12T00:03:35;49.15;31.19;58.98;;
72626;Laerm;60449;52.016;5.414;2023-08-12T00:04:26;45.22;30.71;57.77;;
72626;Laerm;60449;52.016;5.414;2023-08-12T00:05:16;32.36;28.25;39.92;;
72626;Laerm;60449;52.016;5.414;2023-08-12T00:06:06;42.97;28.58;53.09;;
72626;Laerm;60449;52.016;5.414;2023-08-12T00:06:57;29.78;28.19;38.57;;
72626;Laerm;60449;52.016;5.414;2023-08-12T00:07:49;29.88;27.98;33.08;;
72626;Laerm;60449;52.016;5.414;2023-08-12T00:08:46;42.65;29.00;53.66;;
72626;Laerm;60449;52.016;5.414;2023-08-12T00:09:38;29.98;28.20;34.83;;
72626;Laerm;60449;52.016;5.414;2023-08-12T00:10:31;49.56;28.30;61.07;;
72626;Laerm;60449;52.016;5.414;2023-08-12T00:11:22;44.74;29.35;54.34;;
72626;Laerm;60449;52.016;5.414;2023-08-12T00:12:11;48.10;32.01;58.00;;
72626;Laerm;60449;52.016;5.414;2023-08-12T00:13:03;48.88;28.72;63.27;;
72626;Laerm;60449;52.016;5.414;2023-08-12T00:14:42;29.73;28.03;35.69;;
72626;Laerm;60449;52.016;5.414;2023-08-12T00:15:33;29.46;28.04;32.13;;
72626;Laerm;60449;52.016;5.414;2023-08-12T00:16:23;29.36;28.07;33.11;;
72626;Laerm;60449;52.016;5.414;2023-08-12T00:17:14;29.96;28.19;34.36;;
72626;Laerm;60449;52.016;5.414;2023-08-12T00:18:04;51.18;32.75;65.18;;
72626;Laerm;60449;52.016;5.414;2023-08-12T00:19:45;41.71;28.28;54.81;;
72626;Laerm;60449;52.016;5.414;2023-08-12T00:20:35;63.13;28.04;78.97;;
72626;Laerm;60449;52.016;5.414;2023-08-12T00:21:27;68.66;28.00;82.70;;
72626;Laerm;60449;52.016;5.414;2023-08-12T00:22:18;30.37;28.11;36.14;;
72626;Laerm;60449;52.016;5.414;2023-08-12T00:23:11;30.09;28.01;33.75;;
72626;Laerm;60449;52.016;5.414;2023-08-12T00:24:16;30.49;27.62;35.47;;
72626;Laerm;60449;52.016;5.414;2023-08-12T00:25:08;36.51;27.98;46.91;;
72626;Laerm;60449;52.016;5.414;2023-08-12T00:25:58;53.38;31.48;64.60;;
72626;Laerm;60449;52.016;5.414;2023-08-12T00:26:52;54.34;32.29;63.95;;
72626;Laerm;60449;52.016;5.414;2023-08-12T00:27:42;29.80;27.93;34.64;;
72626;Laerm;60449;52.016;5.414;2023-08-12T00:28:32;30.25;28.00;34.08;;
72626;Laerm;60449;52.016;5.414;2023-08-12T00:29:25;48.40;29.10;58.65;;
72626;Laerm;60449;52.016;5.414;2023-08-12T00:30:15;51.29;31.51;60.75;;
72626;Laerm;60449;52.016;5.414;2023-08-12T00:31:05;44.43;27.99;59.70;;
72626;Laerm;60449;52.016;5.414;2023-08-12T00:32:03;29.21;27.68;32.50;;
72626;Laerm;60449;52.016;5.414;2023-08-12T00:32:55;46.28;28.01;57.91;;
72626;Laerm;60449;52.016;5.414;2023-08-12T00:33:54;42.50;28.06;53.79;;
72626;Laerm;60449;52.016;5.414;2023-08-12T00:34:51;49.69;29.88;60.53;;
72626;Laerm;60449;52.016;5.414;2023-08-12T00:35:42;49.69;29.88;60.53;;
72626;Laerm;60449;52.016;5.414;2023-08-12T00:36:31;29.47;27.55;32.50;;
72626;Laerm;60449;52.016;5.414;2023-08-12T00:37:21;29.45;27.99;32.70;;
72626;Laerm;60449;52.016;5.414;2023-08-12T00:38:12;29.98;28.00;34.41;;
72626;Laerm;60449;52.016;5.414;2023-08-12T00:39:02;30.48;28.05;48.41;;
72626;Laerm;60449;52.016;5.414;2023-08-12T00:39:53;29.35;27.71;32.86;;
72626;Laerm;60449;52.016;5.414;2023-08-12T00:40:44;29.46;27.61;36.32;;
72626;Laerm;60449;52.016;5.414;2023-08-12T00:42:25;47.89;36.08;59.50;;
72626;Laerm;60449;52.016;5.414;2023-08-12T00:43:15;49.04;28.76;60.23;;
72626;Laerm;60449;52.016;5.414;2023-08-12T00:44:05;29.64;27.89;32.35;;
72626;Laerm;60449;52.016;5.414;2023-08-12T00:44:55;35.53;28.22;45.79;;
72626;Laerm;60449;52.016;5.414;2023-08-12T00:45:45;50.06;27.93;61.72;;
72626;Laerm;60449;52.016;5.414;2023-08-12T00:46:37;30.17;28.23;34.18;;
72626;Laerm;60449;52.016;5.414;2023-08-12T00:47:30;49.68;30.19;62.30;;
72626;Laerm;60449;52.016;5.414;2023-08-12T00:48:22;29.82;28.04;34.19;;
72626;Laerm;60449;52.016;5.414;2023-08-12T00:49:13;38.15;27.95;50.74;;
72626;Laerm;60449;52.016;5.414;2023-08-12T00:50:07;50.27;28.13;62.60;;
72626;Laerm;60449;52.016;5.414;2023-08-12T00:50:57;51.52;29.38;62.36;;
72626;Laerm;60449;52.016;5.414;2023-08-12T00:51:50;52.11;30.21;67.31;;
72626;Laerm;60449;52.016;5.414;2023-08-12T00:52:41;30.01;27.99;33.92;;
72626;Laerm;60449;52.016;5.414;2023-08-12T00:53:31;29.84;28.10;32.57;;
72626;Laerm;60449;52.016;5.414;2023-08-12T00:54:25;29.76;28.05;32.62;;
72626;Laerm;60449;52.016;5.414;2023-08-12T00:55:17;29.49;27.80;32.85;;
72626;Laerm;60449;52.016;5.414;2023-08-12T00:56:09;29.36;27.60;34.02;;
72626;Laerm;60449;52.016;5.414;2023-08-12T00:57:00;49.15;27.92;62.73;;
72626;Laerm;60449;52.016;5.414;2023-08-12T00:57:51;41.80;27.89;51.81;;
72626;Laerm;60449;52.016;5.414;2023-08-12T00:58:42;29.48;27.96;33.09;;
72626;Laerm;60449;52.016;5.414;2023-08-12T00:59:38;29.88;28.07;36.36;;
72626;Laerm;60449;52.016;5.414;2023-08-12T01:00:30;29.70;27.78;34.28;;
72626;Laerm;60449;52.016;5.414;2023-08-12T01:02:12;30.49;28.01;36.93;;
72626;Laerm;60449;52.016;5.414;2023-08-12T01:03:02;29.32;27.88;33.38;;
72626;Laerm;60449;52.016;5.414;2023-08-12T01:03:55;31.66;27.61;38.36;;
72626;Laerm;60449;52.016;5.414;2023-08-12T01:04:46;47.65;29.45;58.25;;
72626;Laerm;60449;52.016;5.414;2023-08-12T01:05:36;31.93;28.35;38.90;;
72626;Laerm;60449;52.016;5.414;2023-08-12T01:06:27;30.42;27.92;35.89;;
72626;Laerm;60449;52.016;5.414;2023-08-12T01:07:17;49.88;28.21;61.55;;
72626;Laerm;60449;52.016;5.414;2023-08-12T01:08:07;36.28;27.56;48.05;;
72626;Laerm;60449;52.016;5.414;2023-08-12T01:08:57;29.19;27.54;32.67;;
72626;Laerm;60449;52.016;5.414;2023-08-12T01:09:47;29.28;27.66;32.11;;
72626;Laerm;60449;52.016;5.414;2023-08-12T01:10:49;44.88;28.38;55.99;;
72626;Laerm;60449;52.016;5.414;2023-08-12T01:11:53;40.81;28.66;59.89;;
72626;Laerm;60449;52.016;5.414;2023-08-12T01:13:19;47.11;28.23;62.24;;
72626;Laerm;60449;52.016;5.414;2023-08-12T01:14:23;50.24;28.75;64.71;;
72626;Laerm;60449;52.016;5.414;2023-08-12T01:15:20;29.61;27.93;36.14;;
72626;Laerm;60449;52.016;5.414;2023-08-12T01:17:15;29.86;28.13;31.85;;
72626;Laerm;60449;52.016;5.414;2023-08-12T01:19:02;29.47;28.01;32.62;;
72626;Laerm;60449;52.016;5.414;2023-08-12T01:19:55;29.62;27.94;32.74;;
72626;Laerm;60449;52.016;5.414;2023-08-12T01:20:47;56.66;28.99;68.87;;
72626;Laerm;60449;52.016;5.414;2023-08-12T01:21:43;46.52;28.71;68.15;;
72626;Laerm;60449;52.016;5.414;2023-08-12T01:22:39;42.34;27.76;58.59;;
72626;Laerm;60449;52.016;5.414;2023-08-12T01:23:52;29.58;27.69;35.03;;
72626;Laerm;60449;52.016;5.414;2023-08-12T01:24:44;29.86;28.01;32.69;;
72626;Laerm;60449;52.016;5.414;2023-08-12T01:25:34;47.93;28.51;59.65;;
72626;Laerm;60449;52.016;5.414;2023-08-12T01:26:24;31.95;28.58;41.36;;
72626;Laerm;60449;52.016;5.414;2023-08-12T01:27:14;30.11;28.06;32.90;;
72626;Laerm;60449;52.016;5.414;2023-08-12T01:28:08;30.08;27.92;33.12;;
72626;Laerm;60449;52.016;5.414;2023-08-12T01:29:03;29.93;28.25;32.77;;
72626;Laerm;60449;52.016;5.414;2023-08-12T01:29:53;30.20;28.42;34.17;;
72626;Laerm;60449;52.016;5.414;2023-08-12T01:31:06;48.15;29.82;62.52;;
72626;Laerm;60449;52.016;5.414;2023-08-12T01:32:14;33.53;28.35;54.32;;
72626;Laerm;60449;52.016;5.414;2023-08-12T01:34:19;48.99;27.85;61.45;;
72626;Laerm;60449;52.016;5.414;2023-08-12T01:35:19;29.50;27.89;32.79;;
72626;Laerm;60449;52.016;5.414;2023-08-12T01:36:17;29.40;27.73;32.71;;
72626;Laerm;60449;52.016;5.414;2023-08-12T01:37:20;48.07;27.86;61.63;;
72626;Laerm;60449;52.016;5.414;2023-08-12T01:38:18;49.99;27.70;63.68;;
72626;Laerm;60449;52.016;5.414;2023-08-12T01:39:11;29.28;27.58;32.05;;
72626;Laerm;60449;52.016;5.414;2023-08-12T01:40:04;29.20;27.74;32.47;;
72626;Laerm;60449;52.016;5.414;2023-08-12T01:40:55;29.58;27.89;32.80;;
72626;Laerm;60449;52.016;5.414;2023-08-12T01:42:02;29.67;27.50;35.85;;
72626;Laerm;60449;52.016;5.414;2023-08-12T01:42:52;30.06;27.79;35.44;;
72626;Laerm;60449;52.016;5.414;2023-08-12T01:43:47;35.36;28.18;46.78;;
72626;Laerm;60449;52.016;5.414;2023-08-12T01:44:37;52.39;34.84;58.02;;
72626;Laerm;60449;52.016;5.414;2023-08-12T01:45:30;31.58;27.87;38.32;;
72626;Laerm;60449;52.016;5.414;2023-08-12T01:46:24;45.20;31.98;53.86;;
72626;Laerm;60449;52.016;5.414;2023-08-12T01:47:19;51.59;28.71;64.43;;
72626;Laerm;60449;52.016;5.414;2023-08-12T01:48:13;29.20;27.67;33.90;;
72626;Laerm;60449;52.016;5.414;2023-08-12T01:49:06;28.94;27.61;32.25;;
72626;Laerm;60449;52.016;5.414;2023-08-12T01:49:59;29.60;27.58;37.64;;
72626;Laerm;60449;52.016;5.414;2023-08-12T01:50:52;44.74;32.03;53.68;;
72626;Laerm;60449;52.016;5.414;2023-08-12T01:51:44;33.14;27.33;50.74;;
72626;Laerm;60449;52.016;5.414;2023-08-12T01:52:34;28.82;27.47;39.28;;
72626;Laerm;60449;52.016;5.414;2023-08-12T01:53:24;31.91;27.36;42.25;;
72626;Laerm;60449;52.016;5.414;2023-08-12T01:54:16;44.76;29.08;53.99;;
72626;Laerm;60449;52.016;5.414;2023-08-12T01:55:08;35.30;27.50;49.98;;
72626;Laerm;60449;52.016;5.414;2023-08-12T01:56:06;28.90;27.56;33.52;;
72626;Laerm;60449;52.016;5.414;2023-08-12T01:57:02;31.41;27.50;39.13;;
72626;Laerm;60449;52.016;5.414;2023-08-12T01:57:54;29.84;27.99;41.90;;
72626;Laerm;60449;52.016;5.414;2023-08-12T01:58:43;29.44;27.73;32.55;;
72626;Laerm;60449;52.016;5.414;2023-08-12T01:59:37;43.78;29.23;54.06;;
72626;Laerm;60449;52.016;5.414;2023-08-12T02:00:38;49.17;27.90;62.01;;
72626;Laerm;60449;52.016;5.414;2023-08-12T02:01:38;30.07;27.86;37.06;;
72626;Laerm;60449;52.016;5.414;2023-08-12T02:02:34;29.43;27.81;33.92;;
72626;Laerm;60449;52.016;5.414;2023-08-12T02:03:28;29.32;27.60;33.31;;
72626;Laerm;60449;52.016;5.414;2023-08-12T02:04:23;40.79;27.70;52.02;;
72626;Laerm;60449;52.016;5.414;2023-08-12T02:05:17;51.77;27.82;64.94;;
72626;Laerm;60449;52.016;5.414;2023-08-12T02:06:13;29.45;27.83;32.31;;
72626;Laerm;60449;52.016;5.414;2023-08-12T02:07:03;29.54;27.83;33.49;;
72626;Laerm;60449;52.016;5.414;2023-08-12T02:07:53;30.00;27.88;33.48;;
72626;Laerm;60449;52.016;5.414;2023-08-12T02:08:43;31.07;28.39;40.56;;
72626;Laerm;60449;52.016;5.414;2023-08-12T02:09:34;35.54;29.82;47.21;;
72626;Laerm;60449;52.016;5.414;2023-08-12T02:10:24;33.19;28.85;41.82;;
72626;Laerm;60449;52.016;5.414;2023-08-12T02:11:14;31.41;27.94;38.44;;
72626;Laerm;60449;52.016;5.414;2023-08-12T02:12:16;50.33;28.49;64.89;;
72626;Laerm;60449;52.016;5.414;2023-08-12T02:13:07;29.92;28.10;46.19;;
72626;Laerm;60449;52.016;5.414;2023-08-12T02:13:59;29.67;28.05;35.75;;
72626;Laerm;60449;52.016;5.414;2023-08-12T02:15:06;29.44;27.66;40.26;;
72626;Laerm;60449;52.016;5.414;2023-08-12T02:15:59;29.52;27.90;32.39;;
72626;Laerm;60449;52.016;5.414;2023-08-12T02:16:49;35.01;27.75;47.09;;
72626;Laerm;60449;52.016;5.414;2023-08-12T02:18:28;31.92;28.35;41.02;;
72626;Laerm;60449;52.016;5.414;2023-08-12T02:19:19;49.13;27.74;68.05;;
72626;Laerm;60449;52.016;5.414;2023-08-12T02:21:00;29.36;27.81;32.30;;
72626;Laerm;60449;52.016;5.414;2023-08-12T02:21:59;41.73;29.51;56.19;;
72626;Laerm;60449;52.016;5.414;2023-08-12T02:22:49;52.61;36.61;62.46;;
72626;Laerm;60449;52.016;5.414;2023-08-12T02:23:40;30.99;27.80;39.93;;
72626;Laerm;60449;52.016;5.414;2023-08-12T02:24:34;29.12;27.59;34.35;;
72626;Laerm;60449;52.016;5.414;2023-08-12T02:25:26;29.32;27.88;35.82;;
72626;Laerm;60449;52.016;5.414;2023-08-12T02:26:17;28.99;27.40;33.96;;
72626;Laerm;60449;52.016;5.414;2023-08-12T02:27:06;29.09;27.42;42.15;;
72626;Laerm;60449;52.016;5.414;2023-08-12T02:27:56;29.81;27.55;37.76;;
72626;Laerm;60449;52.016;5.414;2023-08-12T02:28:46;29.65;27.62;38.83;;
72626;Laerm;60449;52.016;5.414;2023-08-12T02:29:39;29.65;27.62;38.83;;
72626;Laerm;60449;52.016;5.414;2023-08-12T02:30:29;30.26;27.85;38.17;;
72626;Laerm;60449;52.016;5.414;2023-08-12T02:32:12;31.89;28.81;38.15;;
72626;Laerm;60449;52.016;5.414;2023-08-12T02:33:05;51.70;28.73;64.47;;
72626;Laerm;60449;52.016;5.414;2023-08-12T02:34:07;30.58;27.91;41.93;;
72626;Laerm;60449;52.016;5.414;2023-08-12T02:34:57;29.56;27.29;39.51;;
72626;Laerm;60449;52.016;5.414;2023-08-12T02:35:47;29.67;27.35;45.16;;
72626;Laerm;60449;52.016;5.414;2023-08-12T02:36:38;29.39;27.64;32.82;;
72626;Laerm;60449;52.016;5.414;2023-08-12T02:37:27;30.80;28.19;35.37;;
72626;Laerm;60449;52.016;5.414;2023-08-12T02:39:59;31.24;28.51;42.39;;
72626;Laerm;60449;52.016;5.414;2023-08-12T02:40:50;30.12;27.68;34.21;;
72626;Laerm;60449;52.016;5.414;2023-08-12T02:41:39;29.79;27.80;32.64;;
72626;Laerm;60449;52.016;5.414;2023-08-12T02:42:29;30.03;28.09;33.65;;
72626;Laerm;60449;52.016;5.414;2023-08-12T02:43:25;30.62;28.34;34.74;;
72626;Laerm;60449;52.016;5.414;2023-08-12T02:44:20;30.08;28.18;32.92;;
72626;Laerm;60449;52.016;5.414;2023-08-12T02:45:10;29.89;28.11;33.67;;
72626;Laerm;60449;52.016;5.414;2023-08-12T02:46:50;52.89;35.56;61.59;;
72626;Laerm;60449;52.016;5.414;2023-08-12T02:48:30;43.22;28.15;58.06;;
72626;Laerm;60449;52.016;5.414;2023-08-12T02:49:23;29.68;27.74;33.27;;
72626;Laerm;60449;52.016;5.414;2023-08-12T02:50:13;29.53;27.99;32.25;;
72626;Laerm;60449;52.016;5.414;2023-08-12T02:51:03;32.10;27.99;39.15;;
72626;Laerm;60449;52.016;5.414;2023-08-12T02:51:53;39.62;28.22;49.71;;
72626;Laerm;60449;52.016;5.414;2023-08-12T02:52:46;42.96;28.06;51.88;;
72626;Laerm;60449;52.016;5.414;2023-08-12T02:54:28;41.18;28.22;57.32;;
72626;Laerm;60449;52.016;5.414;2023-08-12T02:55:55;825.31;0.10;18494647683753925093697034753859.04;;
72626;Laerm;60449;52.016;5.414;2023-08-12T02:56:45;50.81;29.32;58.75;;
72626;Laerm;60449;52.016;5.414;2023-08-12T02:57:40;32.49;28.90;39.99;;
72626;Laerm;60449;52.016;5.414;2023-08-12T03:01:26;29.45;27.62;34.12;;
72626;Laerm;60449;52.016;5.414;2023-08-12T03:03:29;29.65;27.90;34.15;;
72626;Laerm;60449;52.016;5.414;2023-08-12T03:04:19;29.47;27.65;34.45;;
72626;Laerm;60449;52.016;5.414;2023-08-12T03:05:10;29.86;28.06;33.77;;
72626;Laerm;60449;52.016;5.414;2023-08-12T03:05:59;48.25;28.73;60.18;;
72626;Laerm;60449;52.016;5.414;2023-08-12T03:07:06;47.19;30.79;57.27;;
72626;Laerm;60449;52.016;5.414;2023-08-12T03:08:04;43.30;28.49;55.13;;
72626;Laerm;60449;52.016;5.414;2023-08-12T03:08:54;50.13;30.02;60.72;;
72626;Laerm;60449;52.016;5.414;2023-08-12T03:09:43;51.55;38.92;61.06;;
72626;Laerm;60449;52.016;5.414;2023-08-12T03:10:39;32.53;28.41;40.03;;
72626;Laerm;60449;52.016;5.414;2023-08-12T03:11:31;30.55;28.36;34.52;;
72626;Laerm;60449;52.016;5.414;2023-08-12T03:13:14;42.27;31.54;49.89;;
72626;Laerm;60449;52.016;5.414;2023-08-12T03:14:04;51.87;30.53;63.09;;
72626;Laerm;60449;52.016;5.414;2023-08-12T03:14:55;32.51;27.94;39.81;;
72626;Laerm;60449;52.016;5.414;2023-08-12T03:15:56;49.71;29.11;60.07;;
72626;Laerm;60449;52.016;5.414;2023-08-12T03:16:49;31.07;27.82;42.71;;
72626;Laerm;60449;52.016;5.414;2023-08-12T03:17:39;31.19;28.54;37.45;;
72626;Laerm;60449;52.016;5.414;2023-08-12T03:18:29;37.61;28.39;52.17;;
72626;Laerm;60449;52.016;5.414;2023-08-12T03:19:22;45.51;29.01;58.09;;
72626;Laerm;60449;52.016;5.414;2023-08-12T03:20:12;41.36;29.87;50.47;;
72626;Laerm;60449;52.016;5.414;2023-08-12T03:21:06;45.26;29.39;56.08;;
72626;Laerm;60449;52.016;5.414;2023-08-12T03:21:57;47.38;29.78;60.27;;
72626;Laerm;60449;52.016;5.414;2023-08-12T03:22:48;35.19;28.65;44.46;;
72626;Laerm;60449;52.016;5.414;2023-08-12T03:24:35;51.81;34.90;62.54;;
72626;Laerm;60449;52.016;5.414;2023-08-12T03:25:32;50.00;31.36;64.00;;
72626;Laerm;60449;52.016;5.414;2023-08-12T03:26:22;49.36;33.37;60.36;;
72626;Laerm;60449;52.016;5.414;2023-08-12T03:27:26;45.80;30.52;57.22;;
72626;Laerm;60449;52.016;5.414;2023-08-12T03:28:16;32.65;28.24;45.15;;
72626;Laerm;60449;52.016;5.414;2023-08-12T03:29:17;43.36;28.51;53.30;;
72626;Laerm;60449;52.016;5.414;2023-08-12T03:30:09;42.40;29.54;54.47;;
72626;Laerm;60449;52.016;5.414;2023-08-12T03:30:59;50.34;32.12;62.08;;
72626;Laerm;60449;52.016;5.414;2023-08-12T03:31:49;50.45;28.98;61.88;;
72626;Laerm;60449;52.016;5.414;2023-08-12T03:32:39;30.08;27.99;33.03;;
72626;Laerm;60449;52.016;5.414;2023-08-12T03:33:32;48.83;28.58;63.48;;
72626;Laerm;60449;52.016;5.414;2023-08-12T03:34:23;50.04;30.60;63.30;;
72626;Laerm;60449;52.016;5.414;2023-08-12T03:35:13;49.02;30.89;60.77;;
72626;Laerm;60449;52.016;5.414;2023-08-12T03:36:04;45.38;29.96;56.14;;
72626;Laerm;60449;52.016;5.414;2023-08-12T03:36:58;52.44;41.05;59.76;;
72626;Laerm;60449;52.016;5.414;2023-08-12T03:37:49;52.44;41.05;59.76;;
72626;Laerm;60449;52.016;5.414;2023-08-12T03:38:40;32.44;28.45;43.31;;
72626;Laerm;60449;52.016;5.414;2023-08-12T03:39:31;54.47;35.67;63.93;;
72626;Laerm;60449;52.016;5.414;2023-08-12T03:40:26;49.35;32.67;58.78;;
72626;Laerm;60449;52.016;5.414;2023-08-12T03:42:08;46.29;30.50;59.34;;
72626;Laerm;60449;52.016;5.414;2023-08-12T03:43:48;55.13;31.84;68.66;;
72626;Laerm;60449;52.016;5.414;2023-08-12T03:44:41;62.83;35.24;79.56;;
72626;Laerm;60449;52.016;5.414;2023-08-12T03:45:31;55.52;29.49;69.02;;
72626;Laerm;60449;52.016;5.414;2023-08-12T03:47:17;49.60;35.13;60.35;;
72626;Laerm;60449;52.016;5.414;2023-08-12T03:48:14;51.43;34.53;65.67;;
72626;Laerm;60449;52.016;5.414;2023-08-12T03:49:12;38.93;32.88;46.49;;
72626;Laerm;60449;52.016;5.414;2023-08-12T03:50:09;46.75;31.02;59.14;;
72626;Laerm;60449;52.016;5.414;2023-08-12T03:50:58;37.09;30.93;49.09;;
72626;Laerm;60449;52.016;5.414;2023-08-12T03:52:06;48.09;32.24;66.51;;
72626;Laerm;60449;52.016;5.414;2023-08-12T03:52:59;41.45;32.15;52.80;;
72626;Laerm;60449;52.016;5.414;2023-08-12T03:54:39;46.89;30.93;57.66;;
72626;Laerm;60449;52.016;5.414;2023-08-12T03:56:25;32.47;29.34;38.96;;
72626;Laerm;60449;52.016;5.414;2023-08-12T03:57:17;32.65;29.21;38.91;;
72626;Laerm;60449;52.016;5.414;2023-08-12T03:58:09;47.99;30.60;58.02;;
72626;Laerm;60449;52.016;5.414;2023-08-12T03:58:59;48.82;31.69;60.22;;
72626;Laerm;60449;52.016;5.414;2023-08-12T03:59:49;42.80;28.69;53.50;;
72626;Laerm;60449;52.016;5.414;2023-08-12T04:00:41;51.42;29.33;64.94;;
72626;Laerm;60449;52.016;5.414;2023-08-12T04:01:31;44.16;28.99;54.64;;
72626;Laerm;60449;52.016;5.414;2023-08-12T04:02:22;31.74;28.93;37.23;;
72626;Laerm;60449;52.016;5.414;2023-08-12T04:03:12;52.08;35.12;60.85;;
72626;Laerm;60449;52.016;5.414;2023-08-12T04:04:03;49.74;32.24;62.08;;
72626;Laerm;60449;52.016;5.414;2023-08-12T04:04:53;53.30;37.49;68.78;;
72626;Laerm;60449;52.016;5.414;2023-08-12T04:05:50;53.59;34.91;64.29;;
72626;Laerm;60449;52.016;5.414;2023-08-12T04:06:41;49.70;30.01;58.73;;
72626;Laerm;60449;52.016;5.414;2023-08-12T04:07:35;39.41;29.09;52.78;;
72626;Laerm;60449;52.016;5.414;2023-08-12T04:09:16;50.97;33.21;65.51;;
72626;Laerm;60449;52.016;5.414;2023-08-12T04:10:07;33.72;29.09;40.57;;
72626;Laerm;60449;52.016;5.414;2023-08-12T04:10:57;30.57;28.41;35.89;;
72626;Laerm;60449;52.016;5.414;2023-08-12T04:11:47;32.46;28.67;43.02;;
72626;Laerm;60449;52.016;5.414;2023-08-12T04:12:40;56.74;32.29;66.94;;
72626;Laerm;60449;52.016;5.414;2023-08-12T04:13:37;31.67;28.38;38.87;;
72626;Laerm;60449;52.016;5.414;2023-08-12T04:14:28;29.79;28.17;33.82;;
72626;Laerm;60449;52.016;5.414;2023-08-12T04:15:18;30.67;28.13;46.63;;
72626;Laerm;60449;52.016;5.414;2023-08-12T04:16:09;33.03;29.08;42.18;;
72626;Laerm;60449;52.016;5.414;2023-08-12T04:16:58;48.34;29.59;59.26;;
72626;Laerm;60449;52.016;5.414;2023-08-12T04:17:49;48.34;29.59;59.26;;
72626;Laerm;60449;52.016;5.414;2023-08-12T04:18:41;48.45;30.26;60.30;;
72626;Laerm;60449;52.016;5.414;2023-08-12T04:19:32;52.03;32.39;62.98;;
72626;Laerm;60449;52.016;5.414;2023-08-12T04:21:12;38.14;29.72;48.46;;
72626;Laerm;60449;52.016;5.414;2023-08-12T04:22:02;54.32;34.68;62.95;;
72626;Laerm;60449;52.016;5.414;2023-08-12T04:22:55;56.00;35.98;70.38;;
72626;Laerm;60449;52.016;5.414;2023-08-12T04:23:44;43.78;32.52;55.29;;
72626;Laerm;60449;52.016;5.414;2023-08-12T04:24:34;52.83;35.63;68.70;;
72626;Laerm;60449;52.016;5.414;2023-08-12T04:25:25;54.38;42.34;63.88;;
72626;Laerm;60449;52.016;5.414;2023-08-12T04:26:14;39.39;32.28;49.23;;
72626;Laerm;60449;52.016;5.414;2023-08-12T04:27:04;36.03;30.14;43.43;;
72626;Laerm;60449;52.016;5.414;2023-08-12T04:27:58;53.00;30.51;65.27;;
72626;Laerm;60449;52.016;5.414;2023-08-12T04:28:56;43.72;28.76;58.03;;
72626;Laerm;60449;52.016;5.414;2023-08-12T04:29:46;52.34;29.79;64.53;;
72626;Laerm;60449;52.016;5.414;2023-08-12T04:30:41;35.53;28.23;47.98;;
72626;Laerm;60449;52.016;5.414;2023-08-12T04:31:57;51.96;34.24;63.63;;
72626;Laerm;60449;52.016;5.414;2023-08-12T04:36:36;53.50;38.12;63.03;;
72626;Laerm;60449;52.016;5.414;2023-08-12T04:37:27;50.61;39.38;57.95;;
72626;Laerm;60449;52.016;5.414;2023-08-12T04:38:18;40.96;29.67;51.21;;
72626;Laerm;60449;52.016;5.414;2023-08-12T04:39:10;61.15;33.90;72.69;;
72626;Laerm;60449;52.016;5.414;2023-08-12T04:40:01;52.73;38.20;63.37;;
72626;Laerm;60449;52.016;5.414;2023-08-12T04:40:53;54.08;41.21;60.28;;
72626;Laerm;60449;52.016;5.414;2023-08-12T04:41:43;54.54;37.72;64.77;;
72626;Laerm;60449;52.016;5.414;2023-08-12T04:42:33;61.10;35.74;73.75;;
72626;Laerm;60449;52.016;5.414;2023-08-12T04:43:26;50.95;30.53;62.46;;
72626;Laerm;60449;52.016;5.414;2023-08-12T04:44:17;50.07;34.89;60.76;;
72626;Laerm;60449;52.016;5.414;2023-08-12T04:45:09;58.34;36.37;73.19;;
72626;Laerm;60449;52.016;5.414;2023-08-12T04:46:02;50.06;33.04;62.36;;
72626;Laerm;60449;52.016;5.414;2023-08-12T04:46:51;51.91;35.62;62.66;;
72626;Laerm;60449;52.016;5.414;2023-08-12T04:48:34;44.13;30.98;57.67;;
72626;Laerm;60449;52.016;5.414;2023-08-12T04:49:25;50.48;32.10;62.33;;
72626;Laerm;60449;52.016;5.414;2023-08-12T04:50:15;49.73;37.20;59.89;;
72626;Laerm;60449;52.016;5.414;2023-08-12T04:51:05;51.99;39.01;62.01;;
72626;Laerm;60449;52.016;5.414;2023-08-12T04:51:58;49.83;35.64;61.84;;
72626;Laerm;60449;52.016;5.414;2023-08-12T04:52:48;48.35;35.18;58.22;;
72626;Laerm;60449;52.016;5.414;2023-08-12T04:53:42;51.10;37.38;61.51;;
72626;Laerm;60449;52.016;5.414;2023-08-12T04:54:35;52.08;40.47;64.36;;
72626;Laerm;60449;52.016;5.414;2023-08-12T04:55:25;56.50;44.45;66.78;;
72626;Laerm;60449;52.016;5.414;2023-08-12T04:56:14;53.77;41.63;60.22;;
72626;Laerm;60449;52.016;5.414;2023-08-12T04:57:05;55.32;39.17;64.55;;
72626;Laerm;60449;52.016;5.414;2023-08-12T04:57:58;52.01;38.62;60.22;;
72626;Laerm;60449;52.016;5.414;2023-08-12T04:58:54;52.53;42.12;65.60;;
72626;Laerm;60449;52.016;5.414;2023-08-12T04:59:53;56.24;42.48;65.47;;
72626;Laerm;60449;52.016;5.414;2023-08-12T05:00:44;41.93;31.72;50.44;;
72626;Laerm;60449;52.016;5.414;2023-08-12T05:01:40;57.16;40.10;74.77;;
72626;Laerm;60449;52.016;5.414;2023-08-12T05:02:37;61.53;43.10;73.46;;
72626;Laerm;60449;52.016;5.414;2023-08-12T05:03:41;54.49;40.45;62.52;;
72626;Laerm;60449;52.016;5.414;2023-08-12T05:04:32;54.76;46.19;63.41;;
72626;Laerm;60449;52.016;5.414;2023-08-12T05:05:21;53.95;43.65;61.43;;
72626;Laerm;60449;52.016;5.414;2023-08-12T05:06:11;54.66;34.33;65.76;;
72626;Laerm;60449;52.016;5.414;2023-08-12T05:07:02;54.66;34.33;65.76;;
72626;Laerm;60449;52.016;5.414;2023-08-12T05:07:51;55.18;31.33;64.43;;
72626;Laerm;60449;52.016;5.414;2023-08-12T05:08:41;51.24;33.69;62.07;;
72626;Laerm;60449;52.016;5.414;2023-08-12T05:09:31;50.89;43.41;57.83;;
72626;Laerm;60449;52.016;5.414;2023-08-12T05:10:22;49.74;36.73;61.01;;
72626;Laerm;60449;52.016;5.414;2023-08-12T05:11:11;58.81;39.89;67.52;;
72626;Laerm;60449;52.016;5.414;2023-08-12T05:12:03;51.69;40.09;60.98;;
72626;Laerm;60449;52.016;5.414;2023-08-12T05:12:53;54.17;36.69;62.33;;
72626;Laerm;60449;52.016;5.414;2023-08-12T05:13:43;34.74;31.14;40.28;;
72626;Laerm;60449;52.016;5.414;2023-08-12T05:14:33;47.80;32.71;59.66;;
72626;Laerm;60449;52.016;5.414;2023-08-12T05:16:14;57.58;43.24;69.34;;
72626;Laerm;60449;52.016;5.414;2023-08-12T05:17:05;53.75;38.82;62.83;;
72626;Laerm;60449;52.016;5.414;2023-08-12T05:17:55;52.97;40.64;64.12;;
72626;Laerm;60449;52.016;5.414;2023-08-12T05:18:45;57.88;41.64;70.34;;
72626;Laerm;60449;52.016;5.414;2023-08-12T05:19:35;39.66;31.68;50.71;;
72626;Laerm;60449;52.016;5.414;2023-08-12T05:20:32;48.70;34.96;62.49;;
72626;Laerm;60449;52.016;5.414;2023-08-12T05:21:28;57.32;41.34;67.40;;
72626;Laerm;60449;52.016;5.414;2023-08-12T05:22:17;55.06;41.08;61.78;;
72626;Laerm;60449;52.016;5.414;2023-08-12T05:23:09;51.80;38.15;59.24;;
72626;Laerm;60449;52.016;5.414;2023-08-12T05:24:00;50.65;33.09;61.26;;
72626;Laerm;60449;52.016;5.414;2023-08-12T05:24:50;56.62;33.82;64.12;;
72626;Laerm;60449;52.016;5.414;2023-08-12T05:25:40;47.78;33.32;58.89;;